createdAt,value
2019-05-09T00:02:34.761Z,0.00
2019-05-09T00:05:34.718Z,0.00
2019-05-09T00:08:34.704Z,0.00
2019-05-09T00:11:34.669Z,0.00
2019-05-09T00:14:34.620Z,0.00
2019-05-09T00:17:34.603Z,0.00
2019-05-09T00:20:34.576Z,0.00
2019-05-09T00:23:34.540Z,0.00
2019-05-09T00:26:34.525Z,0.00
2019-05-09T00:29:34.459Z,0.00
2019-05-09T00:32:34.440Z,0.00
2019-05-09T00:35:34.399Z,0.00
2019-05-09T00:38:34.380Z,0.00
2019-05-09T00:41:34.330Z,0.00
2019-05-09T00:44:34.324Z,0.00
2019-05-09T00:47:34.272Z,0.00
2019-05-09T00:50:34.298Z,0.00
2019-05-09T00:53:34.206Z,0.00
2019-05-09T00:56:34.199Z,0.00
2019-05-09T00:59:34.159Z,0.00
2019-05-09T01:02:34.150Z,0.00
2019-05-09T01:05:34.295Z,0.00
2019-05-09T01:08:34.050Z,0.00
2019-05-09T01:11:34.035Z,0.00
2019-05-09T01:14:34.178Z,0.00
2019-05-09T01:17:33.949Z,0.00
2019-05-09T01:20:33.937Z,0.00
2019-05-09T01:23:34.504Z,0.00
2019-05-09T01:26:33.874Z,0.00
2019-05-09T01:29:33.967Z,0.00
2019-05-09T01:32:34.333Z,0.00
2019-05-09T01:35:34.063Z,0.00
2019-05-09T01:38:34.020Z,0.00
2019-05-09T01:41:34.154Z,0.00
2019-05-09T01:44:33.739Z,0.00
2019-05-09T01:47:34.210Z,0.00
2019-05-09T01:50:34.091Z,0.00
2019-05-09T01:53:33.604Z,0.00
2019-05-09T01:56:33.952Z,0.00
2019-05-09T01:59:34.073Z,0.00
2019-05-09T02:02:33.900Z,0.00
2019-05-09T02:05:34.040Z,0.00
2019-05-09T02:08:34.563Z,0.00
2019-05-09T02:11:42.456Z,0.00
2019-05-09T02:14:34.481Z,0.00
2019-05-09T02:17:33.544Z,0.00
2019-05-09T02:20:33.427Z,0.00
2019-05-09T02:23:33.939Z,0.00
2019-05-09T02:26:33.543Z,0.00
2019-05-09T02:29:40.236Z,0.00
2019-05-09T02:32:34.745Z,0.00
2019-05-09T02:35:39.647Z,0.00
2019-05-09T02:38:34.121Z,0.00
2019-05-09T02:41:33.059Z,0.00
2019-05-09T02:44:33.046Z,0.00
2019-05-09T02:47:33.012Z,0.00
2019-05-09T02:50:32.994Z,0.00
2019-05-09T02:53:32.942Z,0.00
2019-05-09T02:56:32.908Z,0.00
2019-05-09T02:59:32.872Z,0.00
2019-05-09T03:02:32.871Z,0.00
2019-05-09T03:05:32.814Z,0.00
2019-05-09T03:08:32.771Z,0.00
2019-05-09T03:11:32.764Z,0.00
2019-05-09T03:14:32.729Z,0.00
2019-05-09T03:17:32.679Z,0.00
2019-05-09T03:20:32.662Z,0.00
2019-05-09T03:23:32.613Z,0.00
2019-05-09T03:26:32.596Z,0.00
2019-05-09T03:29:32.560Z,0.00
2019-05-09T03:32:32.546Z,0.00
2019-05-09T03:35:32.495Z,0.00
2019-05-09T03:38:32.471Z,0.00
2019-05-09T03:41:32.438Z,0.00
2019-05-09T03:44:32.410Z,0.00
2019-05-09T03:47:32.388Z,0.00
2019-05-09T03:50:32.328Z,5.62
2019-05-09T03:53:32.316Z,5.62
2019-05-09T03:56:32.272Z,5.62
2019-05-09T03:59:32.256Z,11.25
2019-05-09T04:02:32.210Z,11.25
2019-05-09T04:05:32.184Z,16.88
2019-05-09T04:08:32.164Z,16.88
2019-05-09T04:11:32.108Z,22.50
2019-05-09T04:14:32.093Z,22.50
2019-05-09T04:17:32.060Z,33.75
2019-05-09T04:20:32.041Z,33.75
2019-05-09T04:23:31.982Z,39.38
2019-05-09T04:26:31.964Z,45.00
2019-05-09T04:29:31.925Z,50.62
2019-05-09T04:32:31.900Z,56.25
2019-05-09T04:35:31.857Z,61.88
2019-05-09T04:38:31.848Z,61.88
2019-05-09T04:41:31.791Z,61.88
2019-05-09T04:44:31.774Z,61.88
2019-05-09T04:47:38.139Z,61.88
2019-05-09T04:50:32.711Z,61.88
2019-05-09T04:53:31.686Z,73.12
2019-05-09T04:56:31.653Z,84.38
2019-05-09T04:59:31.613Z,90.00
2019-05-09T05:02:31.577Z,95.62
2019-05-09T05:05:31.550Z,90.00
2019-05-09T05:08:31.508Z,78.75
2019-05-09T05:11:31.495Z,67.50
2019-05-09T05:14:31.455Z,67.50
2019-05-09T05:17:31.415Z,67.50
2019-05-09T05:20:31.415Z,67.50
2019-05-09T05:23:31.346Z,67.50
2019-05-09T05:26:31.330Z,73.12
2019-05-09T05:29:31.306Z,73.12
2019-05-09T05:32:31.244Z,78.75
2019-05-09T05:35:31.222Z,84.38
2019-05-09T05:38:31.192Z,95.62
2019-05-09T05:41:31.159Z,112.50
2019-05-09T05:44:31.118Z,135.00
2019-05-09T05:47:31.093Z,146.25
2019-05-09T05:50:31.066Z,151.88
2019-05-09T05:53:31.022Z,168.75
2019-05-09T05:56:31.009Z,202.50
2019-05-09T05:59:30.948Z,202.50
2019-05-09T06:02:30.939Z,140.62
2019-05-09T06:05:30.879Z,146.25
2019-05-09T06:08:30.861Z,191.25
2019-05-09T06:11:30.824Z,202.50
2019-05-09T06:14:30.786Z,213.75
2019-05-09T06:17:30.759Z,253.12
2019-05-09T06:20:30.715Z,298.12
2019-05-09T06:23:30.694Z,337.50
2019-05-09T06:26:30.667Z,455.62
2019-05-09T06:29:30.632Z,506.25
2019-05-09T06:32:30.585Z,337.50
2019-05-09T06:35:30.568Z,326.25
2019-05-09T06:38:30.554Z,337.50
2019-05-09T06:41:30.486Z,354.38
2019-05-09T06:44:30.479Z,382.50
2019-05-09T06:47:30.420Z,1743.75
2019-05-09T06:50:30.408Z,1760.62
2019-05-09T06:53:30.375Z,1659.38
2019-05-09T06:56:30.329Z,1771.88
2019-05-09T06:59:30.308Z,1755.00
2019-05-09T07:02:30.261Z,1867.50
2019-05-09T07:05:30.248Z,1918.12
2019-05-09T07:08:31.492Z,1963.12
2019-05-09T07:11:30.171Z,2098.12
2019-05-09T07:14:33.215Z,1980.00
2019-05-09T07:17:31.962Z,2013.75
2019-05-09T07:20:30.103Z,2070.00
2019-05-09T07:23:30.035Z,2148.75
2019-05-09T07:26:30.026Z,2205.00
2019-05-09T07:29:29.970Z,2278.12
2019-05-09T07:32:29.951Z,2278.12
2019-05-09T07:35:29.908Z,2233.12
2019-05-09T07:38:29.888Z,2390.62
2019-05-09T07:41:29.851Z,2311.88
2019-05-09T07:44:45.037Z,2413.12
2019-05-09T07:47:30.787Z,2441.25
2019-05-09T07:50:29.745Z,2407.50
2019-05-09T07:53:29.737Z,2418.75
2019-05-09T07:56:29.692Z,2469.38
2019-05-09T07:59:29.671Z,2542.50
2019-05-09T08:02:29.632Z,2576.25
2019-05-09T08:05:29.590Z,2514.38
2019-05-09T08:08:30.308Z,2666.25
2019-05-09T08:11:32.274Z,2604.38
2019-05-09T08:14:29.513Z,2643.75
2019-05-09T08:17:29.464Z,2683.12
2019-05-09T08:20:29.450Z,1625.62
2019-05-09T08:23:29.430Z,1237.50
2019-05-09T08:26:30.088Z,2739.38
2019-05-09T08:29:29.355Z,2711.25
2019-05-09T08:32:37.710Z,2728.12
2019-05-09T08:35:29.314Z,2947.50
2019-05-09T08:38:29.262Z,2919.38
2019-05-09T08:41:29.452Z,2896.88
2019-05-09T08:44:31.255Z,2936.25
2019-05-09T08:47:29.168Z,506.25
2019-05-09T08:50:29.159Z,455.62
2019-05-09T08:53:29.094Z,410.62
2019-05-09T08:56:29.077Z,1102.50
2019-05-09T08:59:29.037Z,3183.75
2019-05-09T09:02:29.018Z,3082.50
2019-05-09T09:05:29.038Z,3020.62
2019-05-09T09:08:28.947Z,2795.62
2019-05-09T09:11:28.926Z,3048.75
2019-05-09T09:14:28.908Z,1096.88
2019-05-09T09:17:28.850Z,720.00
2019-05-09T09:20:29.084Z,1046.25
2019-05-09T09:23:42.842Z,3127.50
2019-05-09T09:26:29.773Z,3031.88
2019-05-09T09:29:28.742Z,3020.62
2019-05-09T09:32:28.711Z,2981.25
2019-05-09T09:35:28.677Z,3217.50
2019-05-09T09:38:28.668Z,2452.50
2019-05-09T09:41:28.851Z,2356.88
2019-05-09T09:44:28.921Z,3116.25
2019-05-09T09:47:28.798Z,3026.25
2019-05-09T09:50:28.524Z,489.38
2019-05-09T09:53:28.486Z,573.75
2019-05-09T09:56:28.562Z,765.00
2019-05-09T09:59:28.439Z,3099.38
2019-05-09T10:02:28.411Z,3133.12
2019-05-09T10:05:28.401Z,596.25
2019-05-09T10:08:28.327Z,635.62
2019-05-09T10:11:28.706Z,3076.88
2019-05-09T10:14:28.507Z,1417.50
2019-05-09T10:17:28.258Z,2986.88
2019-05-09T10:20:29.168Z,1906.88
2019-05-09T10:23:28.208Z,3076.88
2019-05-09T10:26:28.502Z,3116.25
2019-05-09T10:29:28.131Z,1231.88
2019-05-09T10:32:28.843Z,2896.88
2019-05-09T10:35:28.054Z,877.50
2019-05-09T10:38:28.159Z,489.38
2019-05-09T10:41:27.996Z,534.38
2019-05-09T10:44:28.443Z,3172.50
2019-05-09T10:47:27.948Z,461.25
2019-05-09T10:50:34.037Z,483.75
2019-05-09T10:53:28.879Z,1743.75
2019-05-09T10:56:28.235Z,1074.38
2019-05-09T10:59:27.830Z,855.00
2019-05-09T11:02:28.033Z,551.25
2019-05-09T11:05:27.891Z,405.00
2019-05-09T11:08:28.628Z,472.50
2019-05-09T11:11:28.490Z,618.75
2019-05-09T11:14:36.021Z,703.12
2019-05-09T11:17:28.768Z,1895.62
2019-05-09T11:20:28.435Z,506.25
2019-05-09T11:23:29.196Z,708.75
2019-05-09T11:26:28.591Z,810.00
2019-05-09T11:29:28.197Z,601.88
2019-05-09T11:32:27.918Z,714.38
2019-05-09T11:35:27.508Z,506.25
2019-05-09T11:38:35.463Z,433.12
2019-05-09T11:41:29.642Z,348.75
2019-05-09T11:44:27.368Z,348.75
2019-05-09T11:47:37.895Z,1265.62
2019-05-09T11:50:28.286Z,444.38
2019-05-09T11:53:28.766Z,2767.50
2019-05-09T11:56:27.246Z,461.25
2019-05-09T11:59:28.086Z,455.62
2019-05-09T12:02:27.963Z,421.88
2019-05-09T12:05:28.783Z,393.75
2019-05-09T12:08:27.082Z,444.38
2019-05-09T12:11:27.068Z,517.50
2019-05-09T12:14:27.671Z,731.25
2019-05-09T12:17:31.223Z,585.00
2019-05-09T12:20:27.969Z,956.25
2019-05-09T12:23:29.011Z,461.25
2019-05-09T12:26:29.230Z,360.00
2019-05-09T12:29:28.730Z,343.12
2019-05-09T12:32:28.519Z,360.00
2019-05-09T12:35:26.795Z,416.25
2019-05-09T12:38:27.735Z,483.75
2019-05-09T12:41:30.941Z,545.62
2019-05-09T12:44:28.803Z,697.50
2019-05-09T12:47:29.168Z,871.88
2019-05-09T12:50:29.269Z,871.88
2019-05-09T12:53:28.003Z,1147.50
2019-05-09T12:56:28.509Z,1530.00
2019-05-09T12:59:28.662Z,849.38
2019-05-09T13:02:27.902Z,776.25
2019-05-09T13:05:27.358Z,1074.38
2019-05-09T13:08:27.866Z,1282.50
2019-05-09T13:11:27.975Z,658.12
2019-05-09T13:14:28.514Z,714.38
2019-05-09T13:17:27.259Z,956.25
2019-05-09T13:20:28.562Z,1620.00
2019-05-09T13:23:28.711Z,973.12
2019-05-09T13:26:28.929Z,1074.38
2019-05-09T13:29:26.225Z,1479.38
2019-05-09T13:32:27.972Z,1361.25
2019-05-09T13:35:27.839Z,1046.25
2019-05-09T13:38:27.629Z,736.88
2019-05-09T13:41:26.149Z,866.25
2019-05-09T13:44:27.759Z,725.62
2019-05-09T13:47:28.070Z,1108.12
2019-05-09T13:50:28.144Z,646.88
2019-05-09T13:53:28.341Z,680.62
2019-05-09T13:56:28.039Z,585.00
2019-05-09T13:59:29.259Z,703.12
2019-05-09T14:02:28.541Z,1321.88
2019-05-09T14:05:28.887Z,658.12
2019-05-09T14:08:28.518Z,646.88
2019-05-09T14:11:28.861Z,776.25
2019-05-09T14:14:27.891Z,708.75
2019-05-09T14:17:44.767Z,731.25
2019-05-09T14:20:27.527Z,770.62
2019-05-09T14:23:34.907Z,1130.62
2019-05-09T14:26:27.766Z,765.00
2019-05-09T14:29:25.616Z,736.88
2019-05-09T14:32:34.914Z,703.12
2019-05-09T14:35:27.665Z,630.00
2019-05-09T14:38:25.518Z,596.25
2019-05-09T14:41:27.740Z,528.75
2019-05-09T14:44:27.632Z,489.38
2019-05-09T14:47:27.681Z,455.62
2019-05-09T14:50:25.384Z,444.38
2019-05-09T14:53:25.375Z,461.25
2019-05-09T14:56:27.813Z,489.38
2019-05-09T14:59:25.317Z,489.38
2019-05-09T15:02:25.255Z,416.25
2019-05-09T15:05:25.232Z,405.00
2019-05-09T15:08:25.195Z,388.12
2019-05-09T15:11:27.932Z,376.88
2019-05-09T15:14:25.121Z,360.00
2019-05-09T15:17:27.570Z,360.00
2019-05-09T15:20:25.075Z,376.88
2019-05-09T15:23:25.047Z,382.50
2019-05-09T15:26:27.502Z,360.00
2019-05-09T15:29:24.981Z,315.00
2019-05-09T15:32:24.961Z,281.25
2019-05-09T15:35:24.900Z,247.50
2019-05-09T15:38:24.886Z,225.00
2019-05-09T15:41:24.867Z,208.12
2019-05-09T15:44:24.807Z,191.25
2019-05-09T15:47:24.823Z,174.38
2019-05-09T15:50:24.747Z,157.50
2019-05-09T15:53:24.720Z,140.62
2019-05-09T15:56:24.683Z,118.12
2019-05-09T15:59:24.652Z,106.88
2019-05-09T16:02:24.730Z,112.50
2019-05-09T16:05:24.622Z,118.12
2019-05-09T16:08:24.542Z,118.12
2019-05-09T16:11:24.530Z,112.50
2019-05-09T16:14:24.482Z,106.88
2019-05-09T16:17:24.463Z,106.88
2019-05-09T16:20:36.874Z,118.12
2019-05-09T16:23:25.384Z,140.62
2019-05-09T16:26:24.392Z,157.50
2019-05-09T16:29:24.321Z,163.12
2019-05-09T16:32:24.302Z,163.12
2019-05-09T16:35:24.273Z,157.50
2019-05-09T16:38:38.837Z,151.88
2019-05-09T16:41:25.282Z,146.25
2019-05-09T16:44:24.166Z,146.25
2019-05-09T16:47:24.169Z,146.25
2019-05-09T16:50:24.100Z,146.25
2019-05-09T16:53:24.086Z,151.88
2019-05-09T16:56:24.045Z,157.50
2019-05-09T16:59:24.019Z,163.12
2019-05-09T17:02:25.064Z,163.12
2019-05-09T17:05:23.933Z,163.12
2019-05-09T17:08:23.919Z,180.00
2019-05-09T17:11:23.895Z,180.00
2019-05-09T17:14:23.835Z,174.38
2019-05-09T17:17:23.829Z,157.50
2019-05-09T17:20:23.771Z,157.50
2019-05-09T17:23:23.773Z,146.25
2019-05-09T17:26:23.707Z,129.38
2019-05-09T17:29:23.693Z,123.75
2019-05-09T17:32:23.653Z,112.50
2019-05-09T17:35:23.638Z,112.50
2019-05-09T17:38:23.582Z,118.12
2019-05-09T17:41:23.568Z,101.25
2019-05-09T17:44:23.530Z,90.00
2019-05-09T17:47:23.487Z,84.38
2019-05-09T17:50:23.470Z,84.38
2019-05-09T17:53:23.451Z,84.38
2019-05-09T17:56:23.384Z,84.38
2019-05-09T17:59:23.390Z,90.00
2019-05-09T18:02:23.321Z,95.62
2019-05-09T18:05:23.306Z,90.00
2019-05-09T18:08:23.257Z,84.38
2019-05-09T18:11:23.259Z,78.75
2019-05-09T18:14:23.187Z,67.50
2019-05-09T18:17:23.171Z,61.88
2019-05-09T18:20:23.151Z,56.25
2019-05-09T18:23:23.096Z,50.62
2019-05-09T18:26:23.091Z,45.00
2019-05-09T18:29:23.027Z,39.38
2019-05-09T18:32:23.027Z,33.75
2019-05-09T18:35:22.966Z,28.12
2019-05-09T18:38:22.951Z,28.12
2019-05-09T18:41:22.898Z,22.50
2019-05-09T18:44:22.923Z,16.88
2019-05-09T18:47:22.853Z,16.88
2019-05-09T18:50:22.828Z,11.25
2019-05-09T18:53:22.766Z,11.25
2019-05-09T18:56:22.751Z,5.62
2019-05-09T18:59:22.718Z,5.62
2019-05-09T19:02:22.699Z,5.62
2019-05-09T19:05:22.655Z,0.00
2019-05-09T19:08:22.637Z,0.00
2019-05-09T19:11:22.573Z,0.00
2019-05-09T19:14:22.568Z,0.00
2019-05-09T19:17:22.533Z,0.00
2019-05-09T19:20:22.480Z,0.00
2019-05-09T19:23:22.456Z,0.00
2019-05-09T19:26:22.427Z,0.00
2019-05-09T19:29:22.381Z,0.00
2019-05-09T19:32:22.367Z,0.00
2019-05-09T19:35:22.324Z,0.00
2019-05-09T19:38:22.293Z,0.00
2019-05-09T19:41:22.250Z,0.00
2019-05-09T19:44:22.261Z,0.00
2019-05-09T19:47:22.183Z,0.00
2019-05-09T19:50:22.165Z,0.00
2019-05-09T19:53:22.120Z,0.00
2019-05-09T19:56:22.104Z,0.00
2019-05-09T19:59:22.065Z,0.00
2019-05-09T20:02:22.023Z,0.00
2019-05-09T20:05:22.001Z,0.00
2019-05-09T20:08:21.990Z,0.00
2019-05-09T20:11:21.924Z,0.00
2019-05-09T20:14:21.910Z,0.00
2019-05-09T20:17:21.860Z,0.00
2019-05-09T20:20:21.837Z,0.00
2019-05-09T20:23:21.801Z,0.00
2019-05-09T20:26:21.774Z,0.00
2019-05-09T20:29:21.743Z,0.00
2019-05-09T20:32:21.692Z,0.00
2019-05-09T20:35:21.686Z,0.00
2019-05-09T20:38:21.656Z,0.00
2019-05-09T20:41:21.599Z,0.00
2019-05-09T20:44:21.575Z,0.00
2019-05-09T20:47:21.538Z,0.00
2019-05-09T20:50:21.537Z,0.00
2019-05-09T20:53:21.459Z,0.00
2019-05-09T20:56:21.450Z,0.00
2019-05-09T20:59:21.397Z,0.00
2019-05-09T21:02:21.371Z,0.00
2019-05-09T21:05:21.345Z,0.00
2019-05-09T21:08:21.309Z,0.00
2019-05-09T21:11:21.280Z,0.00
2019-05-09T21:14:21.228Z,0.00
2019-05-09T21:17:21.216Z,0.00
2019-05-09T21:20:21.175Z,0.00
2019-05-09T21:23:24.716Z,0.00
2019-05-09T21:26:21.100Z,0.00
2019-05-09T21:29:21.087Z,0.00
2019-05-09T21:32:21.033Z,0.00
2019-05-09T21:35:21.009Z,0.00
2019-05-09T21:38:20.991Z,0.00
2019-05-09T21:41:20.932Z,0.00
2019-05-09T21:44:20.917Z,0.00
2019-05-09T21:47:20.863Z,0.00
2019-05-09T21:50:20.849Z,0.00
2019-05-09T21:53:20.801Z,0.00
2019-05-09T21:56:20.792Z,0.00
2019-05-09T21:59:20.733Z,0.00
2019-05-09T22:02:20.710Z,0.00
2019-05-09T22:05:20.671Z,0.00
2019-05-09T22:08:20.642Z,0.00
2019-05-09T22:11:20.598Z,0.00
2019-05-09T22:14:20.577Z,0.00
2019-05-09T22:17:20.547Z,0.00
2019-05-09T22:20:20.527Z,0.00
2019-05-09T22:23:20.465Z,0.00
2019-05-09T22:26:20.450Z,0.00
2019-05-09T22:29:20.394Z,0.00
2019-05-09T22:32:22.245Z,0.00
2019-05-09T22:35:20.331Z,0.00
2019-05-09T22:38:20.311Z,0.00
2019-05-09T22:41:20.290Z,0.00
2019-05-09T22:44:20.242Z,0.00
2019-05-09T22:47:20.225Z,0.00
2019-05-09T22:50:20.166Z,0.00
2019-05-09T22:53:20.162Z,0.00
2019-05-09T22:56:20.107Z,0.00
2019-05-09T22:59:20.065Z,0.00
2019-05-09T23:02:20.054Z,0.00
2019-05-09T23:05:19.995Z,0.00
2019-05-09T23:08:19.979Z,0.00
2019-05-09T23:11:19.957Z,0.00
2019-05-09T23:14:19.915Z,0.00
2019-05-09T23:17:19.876Z,0.00
2019-05-09T23:20:19.830Z,0.00
2019-05-09T23:23:19.815Z,0.00
2019-05-09T23:26:19.774Z,0.00
2019-05-09T23:29:19.756Z,0.00
2019-05-09T23:32:19.714Z,0.00
2019-05-09T23:35:19.684Z,0.00
2019-05-09T23:38:19.655Z,0.00
2019-05-09T23:41:19.599Z,0.00
2019-05-09T23:44:19.590Z,0.00
2019-05-09T23:47:19.554Z,0.00
2019-05-09T23:50:19.501Z,0.00
2019-05-09T23:53:19.474Z,0.00
2019-05-09T23:56:19.432Z,0.00
2019-05-09T23:59:19.428Z,0.00
